Terminal Aerodrome Forecast
Issued by NWS

Home | Current Version | Previous Version | Text Only | Print | Product List | Glossary On
Versions: 1 2 3 4 5 6 7 8 9 10 11 12 13
000
FTUS42 TJSJ 261124
TAFIST
TAF
TIST 261124Z 2612/2712 08010KT P6SM VCSH SCT020 SCT040
     FM261400 10012KT P6SM VCSH FEW020 SCT035
     FM261630 10013KT P6SM FEW024 BKN030 BKN045
     FM262300 09008KT P6SM FEW025 SCT040=

USA.gov is the U.S. government's official web portal to all federal, state and local government web resources and services.